Time;durP1;ratioP1;P1;durP2;ratioP2;P2;SDS_P1;SDS_P2;PMS_P1;PMS_P2;Temp;Humidity;BMP_temperature;BMP_pressure;BME280_temperature;BME280_humidity;BME280_pressure;Samples;Min_cycle;Max_cycle;Signal;HPM_P1;HPM_P2
2022/04/28 00:00:25;;;;;;;3.25;2.10;;;;;;;;;;5002527;28;20953;-17
2022/04/28 00:02:53;;;;;;;4.47;2.30;;;;;;;;;;5005901;28;20773;-17
2022/04/28 00:05:21;;;;;;;3.75;2.13;;;;;;;;;;5001725;28;20697;-17
2022/04/28 00:07:49;;;;;;;3.72;1.98;;;;;;;;;;4999561;28;20234;-17
2022/04/28 00:10:16;;;;;;;4.43;2.10;;;;;;;;;;5000050;28;20230;-17
2022/04/28 00:12:44;;;;;;;2.92;1.90;;;;;;;;;;5002480;28;20224;-17
2022/04/28 00:15:11;;;;;;;5.68;2.03;;;;;;;;;;5003753;28;20243;-17
2022/04/28 00:17:38;;;;;;;4.82;2.20;;;;;;;;;;5003475;28;20303;-17
2022/04/28 00:20:06;;;;;;;4.22;2.30;;;;;;;;;;5002906;28;20699;-17
2022/04/28 00:22:35;;;;;;;5.22;2.10;;;;;;;;;;5002363;28;20248;-17
2022/04/28 00:25:02;;;;;;;4.40;2.30;;;;;;;;;;5004775;28;20240;-17
2022/04/28 00:27:30;;;;;;;3.97;2.17;;;;;;;;;;5001804;28;20228;-17
2022/04/28 00:29:57;;;;;;;5.88;2.10;;;;;;;;;;5004186;28;20249;-17
2022/04/28 00:32:25;;;;;;;3.28;2.30;;;;;;;;;;5007555;28;20231;-17
2022/04/28 00:34:52;;;;;;;4.05;2.15;;;;;;;;;;5002792;28;20228;-17
2022/04/28 00:37:20;;;;;;;2.80;2.08;;;;;;;;;;5002652;28;20232;-17
2022/04/28 00:39:49;;;;;;;6.22;2.13;;;;;;;;;;5003245;28;20231;-17
2022/04/28 00:42:16;;;;;;;4.80;2.20;;;;;;;;;;5004953;28;20278;-17
2022/04/28 00:44:44;;;;;;;2.97;2.03;;;;;;;;;;5002588;28;20220;-17
2022/04/28 00:47:11;;;;;;;4.88;2.10;;;;;;;;;;5009484;28;20231;-17
2022/04/28 00:52:24;;;;;;;3.42;2.30;;;;;;;;;;5003446;28;20739;-17
2022/04/28 00:54:53;;;;;;;2.45;2.13;;;;;;;;;;5005659;28;20235;-17
2022/04/28 00:57:20;;;;;;;3.30;2.50;;;;;;;;;;5004243;28;21043;-17
2022/04/28 00:59:48;;;;;;;4.85;2.60;;;;;;;;;;5005719;28;20331;-17
2022/04/28 01:02:18;;;;;;;4.03;2.20;;;;;;;;;;5005267;28;20236;-17
2022/04/28 01:04:46;;;;;;;5.68;2.53;;;;;;;;;;5004982;28;21051;-17
2022/04/28 01:07:13;;;;;;;3.88;2.10;;;;;;;;;;5002221;28;20232;-17
2022/04/28 01:09:41;;;;;;;3.90;2.17;;;;;;;;;;5001256;28;20699;-17
2022/04/28 01:12:14;;;;;;;3.78;2.40;;;;;;;;;;5005598;28;20243;-17
2022/04/28 01:14:42;;;;;;;3.55;2.22;;;;;;;;;;5001814;28;20236;-17
2022/04/28 01:17:09;;;;;;;2.85;1.95;;;;;;;;;;5003164;28;20716;-18
2022/04/28 01:19:37;;;;;;;4.57;2.65;;;;;;;;;;5005801;28;20228;-17
2022/04/28 01:22:05;;;;;;;3.65;2.00;;;;;;;;;;5008916;28;20236;-17
2022/04/28 01:24:33;;;;;;;3.28;2.17;;;;;;;;;;5005750;28;20239;-16
2022/04/28 01:27:01;;;;;;;6.70;2.47;;;;;;;;;;5005332;28;20227;-16
2022/04/28 01:29:30;;;;;;;2.95;1.98;;;;;;;;;;5008157;28;20231;-17
2022/04/28 01:31:58;;;;;;;3.17;2.30;;;;;;;;;;5002520;28;20622;-16
2022/04/28 01:34:25;;;;;;;4.85;2.50;;;;;;;;;;5001691;28;20248;-17
2022/04/28 01:36:53;;;;;;;3.50;2.42;;;;;;;;;;4998204;28;20232;-17
2022/04/28 01:39:21;;;;;;;3.65;2.30;;;;;;;;;;5003935;28;20215;-16
2022/04/28 01:41:49;;;;;;;4.40;2.38;;;;;;;;;;5005676;28;20319;-17
2022/04/28 01:44:16;;;;;;;6.15;2.58;;;;;;;;;;5004769;28;20366;-17
2022/04/28 01:46:44;;;;;;;4.38;2.42;;;;;;;;;;5005993;28;20310;-17
2022/04/28 01:49:12;;;;;;;3.97;2.25;;;;;;;;;;5004448;28;20702;-17
2022/04/28 01:57:10;;;;;;;3.80;2.55;;;;;;;;;;5001594;28;20258;-17
2022/04/28 01:59:38;;;;;;;4.05;2.33;;;;;;;;;;5004686;28;21047;-16
2022/04/28 02:02:05;;;;;;;5.18;2.63;;;;;;;;;;5001751;28;20676;-17
2022/04/28 02:04:33;;;;;;;3.22;2.28;;;;;;;;;;5005779;28;20236;-16
2022/04/28 02:07:01;;;;;;;5.18;2.70;;;;;;;;;;5003814;28;20220;-16
2022/04/28 02:09:29;;;;;;;4.60;2.50;;;;;;;;;;5002382;28;20680;-17
2022/04/28 02:11:57;;;;;;;3.47;2.50;;;;;;;;;;5003042;28;20229;-16
2022/04/28 02:14:24;;;;;;;4.63;2.40;;;;;;;;;;5001809;28;20726;-17
2022/04/28 02:16:51;;;;;;;4.82;2.42;;;;;;;;;;5005005;28;20863;-17
2022/04/28 02:19:19;;;;;;;6.50;2.60;;;;;;;;;;5002148;28;20236;-16
2022/04/28 02:21:46;;;;;;;4.72;2.65;;;;;;;;;;5013186;22;20248;-20
2022/04/28 02:24:13;;;;;;;5.20;2.70;;;;;;;;;;4985414;28;20720;-19
2022/04/28 02:26:43;;;;;;;2.70;2.17;;;;;;;;;;4987879;28;20232;-21
2022/04/28 02:29:10;;;;;;;5.05;2.75;;;;;;;;;;4981234;28;21069;-18
2022/04/28 02:31:38;;;;;;;4.90;2.42;;;;;;;;;;4982550;28;20232;-19
2022/04/28 02:34:05;;;;;;;5.38;2.58;;;;;;;;;;4982135;28;20241;-20
2022/04/28 02:36:32;;;;;;;4.05;2.40;;;;;;;;;;4980894;28;20236;-19
2022/04/28 02:39:00;;;;;;;3.90;2.63;;;;;;;;;;4985107;28;20232;-19
2022/04/28 02:41:27;;;;;;;4.05;2.47;;;;;;;;;;4982180;28;20228;-19
2022/04/28 02:43:56;;;;;;;4.15;2.20;;;;;;;;;;4984025;28;20232;-20
2022/04/28 02:46:23;;;;;;;4.93;2.60;;;;;;;;;;4982056;28;20239;-18
2022/04/28 02:48:50;;;;;;;3.95;2.20;;;;;;;;;;4984363;28;20827;-18
2022/04/28 02:51:18;;;;;;;5.80;2.60;;;;;;;;;;4980278;28;20707;-18
2022/04/28 02:53:45;;;;;;;5.68;2.67;;;;;;;;;;4981018;28;20232;-18
2022/04/28 02:56:12;;;;;;;3.53;2.10;;;;;;;;;;4985253;28;20236;-19
2022/04/28 02:58:40;;;;;;;3.50;2.40;;;;;;;;;;4984136;28;20236;-19
2022/04/28 03:01:08;;;;;;;4.13;2.55;;;;;;;;;;4980981;28;20232;-19
2022/04/28 03:03:36;;;;;;;3.42;2.33;;;;;;;;;;4981000;28;20623;-20
2022/04/28 03:11:33;;;;;;;4.95;2.67;;;;;;;;;;4983363;28;20236;-20
2022/04/28 03:14:00;;;;;;;3.75;2.35;;;;;;;;;;4981356;28;20240;-18
2022/04/28 03:16:29;;;;;;;3.38;2.70;;;;;;;;;;4980710;28;20240;-18
2022/04/28 03:18:57;;;;;;;5.05;2.53;;;;;;;;;;4981970;28;20240;-18
2022/04/28 03:21:24;;;;;;;3.95;2.35;;;;;;;;;;4982487;28;20255;-19
2022/04/28 03:23:52;;;;;;;5.82;2.40;;;;;;;;;;4982629;28;20221;-20
2022/04/28 03:26:19;;;;;;;4.03;2.25;;;;;;;;;;4984360;28;20228;-19
2022/04/28 03:28:47;;;;;;;4.13;2.20;;;;;;;;;;4984215;28;20236;-19
2022/04/28 03:31:14;;;;;;;2.80;2.40;;;;;;;;;;4983747;28;20236;-20
2022/04/28 03:33:43;;;;;;;3.03;2.42;;;;;;;;;;4980198;28;20268;-20
2022/04/28 03:38:51;;;;;;;4.47;2.45;;;;;;;;;;4984732;28;20224;-19
2022/04/28 03:41:19;;;;;;;5.93;2.72;;;;;;;;;;4980399;28;20229;-20
2022/04/28 03:43:46;;;;;;;4.40;2.55;;;;;;;;;;4982917;28;20294;-19
2022/04/28 03:46:15;;;;;;;3.00;2.58;;;;;;;;;;4981676;28;20708;-20
2022/04/28 03:48:43;;;;;;;2.83;2.30;;;;;;;;;;4983640;28;20236;-20
2022/04/28 03:51:11;;;;;;;4.13;2.50;;;;;;;;;;4979833;28;20232;-19
2022/04/28 03:53:38;;;;;;;3.15;2.45;;;;;;;;;;4986963;28;20242;-20
2022/04/28 03:56:06;;;;;;;3.72;2.28;;;;;;;;;;4981808;28;20748;-20
2022/04/28 03:58:33;;;;;;;5.35;2.58;;;;;;;;;;4986080;28;20221;-20
2022/04/28 04:01:01;;;;;;;2.92;2.28;;;;;;;;;;4983341;28;20595;-20
2022/04/28 04:03:28;;;;;;;3.42;2.67;;;;;;;;;;4986711;28;21053;-17
2022/04/28 04:05:57;;;;;;;3.47;2.65;;;;;;;;;;4984262;28;20232;-19
2022/04/28 04:08:24;;;;;;;4.00;2.53;;;;;;;;;;4983704;28;20688;-20
2022/04/28 04:10:51;;;;;;;4.55;2.58;;;;;;;;;;4983021;28;20221;-20
2022/04/28 04:13:19;;;;;;;4.13;2.40;;;;;;;;;;4984262;28;20239;-20
2022/04/28 04:15:46;;;;;;;5.35;2.72;;;;;;;;;;4989453;28;20255;-19
2022/04/28 04:18:13;;;;;;;5.45;2.53;;;;;;;;;;4986390;28;20283;-20
2022/04/28 04:20:41;;;;;;;3.60;2.42;;;;;;;;;;4983136;28;20229;-19
2022/04/28 04:23:09;;;;;;;5.13;2.72;;;;;;;;;;4986255;28;20257;-19
2022/04/28 04:25:37;;;;;;;5.15;2.30;;;;;;;;;;4985896;28;20274;-20
2022/04/28 04:28:05;;;;;;;4.18;2.05;;;;;;;;;;4982414;28;20236;-20
2022/04/28 04:33:17;;;;;;;3.60;2.60;;;;;;;;;;4987600;28;20228;-20
2022/04/28 04:35:44;;;;;;;5.00;2.75;;;;;;;;;;4985832;28;20248;-19
2022/04/28 04:38:13;;;;;;;2.83;2.25;;;;;;;;;;4983080;28;21072;-19
2022/04/28 04:40:47;;;;;;;4.60;2.75;;;;;;;;;;4983473;28;20233;-19
2022/04/28 04:43:14;;;;;;;4.20;2.60;;;;;;;;;;4986410;28;20638;-18
2022/04/28 04:45:43;;;;;;;3.42;2.55;;;;;;;;;;4983430;28;20239;-18
2022/04/28 04:48:10;;;;;;;6.25;2.63;;;;;;;;;;4986148;28;20750;-18
2022/04/28 04:50:38;;;;;;;3.22;2.30;;;;;;;;;;4986090;28;20250;-20
2022/04/28 04:53:05;;;;;;;3.03;2.30;;;;;;;;;;4981975;28;20247;-20
2022/04/28 04:55:34;;;;;;;4.30;2.40;;;;;;;;;;4982522;28;20256;-20
2022/04/28 04:58:01;;;;;;;3.45;2.35;;;;;;;;;;4985228;28;20236;-20
2022/04/28 05:00:29;;;;;;;4.63;2.40;;;;;;;;;;4983816;28;20572;-19
2022/04/28 05:02:56;;;;;;;3.15;2.42;;;;;;;;;;4986319;28;20232;-19
2022/04/28 05:05:23;;;;;;;3.97;2.53;;;;;;;;;;4984170;28;20237;-19
2022/04/28 05:07:51;;;;;;;4.07;2.83;;;;;;;;;;4983853;28;20724;-19
2022/04/28 05:10:18;;;;;;;4.65;2.50;;;;;;;;;;4983468;28;20248;-20
2022/04/28 05:12:47;;;;;;;4.15;2.33;;;;;;;;;;4989695;28;20232;-20
2022/04/28 05:15:14;;;;;;;3.72;2.33;;;;;;;;;;4983544;28;20249;-20
2022/04/28 05:17:41;;;;;;;3.40;2.28;;;;;;;;;;4986026;28;20328;-19
2022/04/28 05:20:09;;;;;;;3.97;2.38;;;;;;;;;;4984981;28;20236;-19
2022/04/28 05:22:36;;;;;;;5.13;2.45;;;;;;;;;;4984588;28;20260;-19
2022/04/28 05:25:04;;;;;;;2.70;2.30;;;;;;;;;;4982612;28;20239;-20
2022/04/28 05:27:31;;;;;;;3.13;2.35;;;;;;;;;;4984600;28;20231;-19
2022/04/28 05:30:00;;;;;;;3.65;2.42;;;;;;;;;;4983437;28;20758;-20
2022/04/28 05:32:27;;;;;;;3.63;2.30;;;;;;;;;;4985074;28;22420;-19
2022/04/28 05:34:55;;;;;;;3.92;2.00;;;;;;;;;;4983976;28;20738;-19
2022/04/28 05:37:22;;;;;;;4.28;2.42;;;;;;;;;;4983265;28;20240;-19
2022/04/28 05:39:49;;;;;;;4.80;1.92;;;;;;;;;;4984360;28;21036;-20
2022/04/28 05:42:16;;;;;;;3.38;2.10;;;;;;;;;;4982625;28;20245;-20
2022/04/28 05:47:30;;;;;;;4.97;2.42;;;;;;;;;;4985094;28;20221;-20
2022/04/28 05:49:57;;;;;;;4.78;2.30;;;;;;;;;;4983084;28;21039;-20
2022/04/28 05:52:25;;;;;;;4.03;1.85;;;;;;;;;;4983861;28;20244;-19
2022/04/28 05:54:52;;;;;;;2.55;1.75;;;;;;;;;;4983989;28;20715;-20
2022/04/28 05:57:19;;;;;;;2.78;1.92;;;;;;;;;;4981783;28;20224;-20
2022/04/28 05:59:47;;;;;;;2.90;1.88;;;;;;;;;;4982203;28;20229;-19
2022/04/28 06:02:14;;;;;;;2.85;1.70;;;;;;;;;;4987639;28;20228;-19
2022/04/28 06:04:43;;;;;;;2.58;1.77;;;;;;;;;;4981749;28;20240;-19
2022/04/28 06:07:10;;;;;;;4.35;2.08;;;;;;;;;;4981526;28;20697;-19
2022/04/28 06:09:38;;;;;;;5.05;1.90;;;;;;;;;;4981001;28;20244;-19
2022/04/28 06:12:05;;;;;;;3.15;1.58;;;;;;;;;;4984418;28;20232;-20
2022/04/28 06:14:32;;;;;;;2.95;1.70;;;;;;;;;;4981931;28;20260;-20
2022/04/28 06:17:01;;;;;;;3.75;1.80;;;;;;;;;;4987873;28;20244;-19
2022/04/28 06:19:29;;;;;;;4.03;2.17;;;;;;;;;;4981632;28;20283;-20
2022/04/28 06:21:57;;;;;;;3.70;1.55;;;;;;;;;;4982518;28;20255;-20
2022/04/28 06:24:25;;;;;;;4.05;1.80;;;;;;;;;;4982646;28;20757;-19
2022/04/28 06:26:53;;;;;;;2.78;1.70;;;;;;;;;;4982470;28;20240;-19
2022/04/28 06:29:20;;;;;;;2.20;1.60;;;;;;;;;;4986460;28;20240;-19
2022/04/28 06:31:47;;;;;;;3.20;1.80;;;;;;;;;;4984683;28;20224;-20
2022/04/28 06:34:15;;;;;;;2.28;1.60;;;;;;;;;;4983371;28;20235;-19
2022/04/28 06:36:42;;;;;;;3.35;2.08;;;;;;;;;;4980755;28;21047;-19
2022/04/28 06:39:11;;;;;;;3.25;2.00;;;;;;;;;;4984354;28;20234;-19
2022/04/28 06:41:38;;;;;;;4.40;2.13;;;;;;;;;;4984708;28;20770;-19
2022/04/28 06:44:05;;;;;;;3.35;2.03;;;;;;;;;;4980080;28;20323;-19
2022/04/28 06:46:33;;;;;;;3.55;1.90;;;;;;;;;;4984036;28;20224;-20
2022/04/28 06:49:00;;;;;;;4.10;2.00;;;;;;;;;;4981979;28;20614;-20
2022/04/28 06:51:27;;;;;;;3.95;2.10;;;;;;;;;;4991721;28;20241;-20
2022/04/28 06:53:55;;;;;;;3.47;2.15;;;;;;;;;;4982266;28;20228;-20
2022/04/28 06:56:23;;;;;;;3.45;2.30;;;;;;;;;;4982251;28;20270;-20
2022/04/28 06:58:51;;;;;;;3.78;2.10;;;;;;;;;;4982300;28;20242;-19
2022/04/28 07:01:18;;;;;;;3.15;1.58;;;;;;;;;;4983566;28;20232;-18
2022/04/28 07:03:46;;;;;;;4.03;1.85;;;;;;;;;;4985036;28;20231;-20
2022/04/28 07:06:13;;;;;;;2.40;1.80;;;;;;;;;;4984773;28;20228;-18
2022/04/28 07:08:40;;;;;;;3.40;1.60;;;;;;;;;;4984132;28;20592;-18
2022/04/28 07:11:08;;;;;;;2.83;1.80;;;;;;;;;;4983827;28;20272;-18
2022/04/28 07:13:37;;;;;;;2.40;1.50;;;;;;;;;;4983569;28;20235;-18
2022/04/28 07:16:05;;;;;;;2.55;1.52;;;;;;;;;;4980974;28;20240;-18
2022/04/28 07:18:32;;;;;;;2.47;1.60;;;;;;;;;;4983594;28;20216;-18
2022/04/28 07:21:00;;;;;;;2.47;1.50;;;;;;;;;;4981162;28;20234;-17
2022/04/28 07:23:28;;;;;;;2.70;1.85;;;;;;;;;;4982353;28;20239;-18
2022/04/28 07:25:55;;;;;;;3.60;1.45;;;;;;;;;;4981807;28;20228;-18
2022/04/28 07:28:22;;;;;;;3.03;1.58;;;;;;;;;;4976555;28;20233;-18
2022/04/28 07:30:51;;;;;;;3.35;1.50;;;;;;;;;;4983670;28;20707;-19
2022/04/28 07:33:18;;;;;;;2.15;1.40;;;;;;;;;;4982714;28;20251;-17
2022/04/28 07:35:46;;;;;;;2.78;1.77;;;;;;;;;;4982979;28;20248;-20
2022/04/28 07:38:13;;;;;;;2.58;1.48;;;;;;;;;;4980239;28;20242;-20
2022/04/28 07:40:40;;;;;;;3.58;1.50;;;;;;;;;;4983524;28;20236;-20
2022/04/28 07:43:08;;;;;;;3.20;1.60;;;;;;;;;;4983726;28;20254;-20
2022/04/28 07:45:35;;;;;;;2.38;1.60;;;;;;;;;;4980978;28;20237;-20
2022/04/28 07:48:05;;;;;;;3.58;1.92;;;;;;;;;;4983340;28;20248;-20
2022/04/28 07:50:32;;;;;;;2.83;1.63;;;;;;;;;;4980199;28;21041;-20
2022/04/28 07:52:59;;;;;;;3.63;1.75;;;;;;;;;;4982567;28;20220;-19
2022/04/28 07:55:27;;;;;;;2.97;1.70;;;;;;;;;;4982473;28;20236;-19
2022/04/28 07:57:54;;;;;;;2.45;1.40;;;;;;;;;;4981860;28;20239;-19
2022/04/28 08:00:21;;;;;;;2.28;1.50;;;;;;;;;;4983936;28;20216;-20
2022/04/28 08:02:49;;;;;;;4.28;1.73;;;;;;;;;;4983223;28;20241;-19
2022/04/28 08:05:17;;;;;;;2.65;1.50;;;;;;;;;;4982540;28;20695;-19
2022/04/28 08:07:45;;;;;;;2.50;1.52;;;;;;;;;;4983928;28;20240;-20
2022/04/28 08:10:12;;;;;;;3.22;1.70;;;;;;;;;;4983987;28;20282;-19
2022/04/28 08:12:40;;;;;;;4.47;1.38;;;;;;;;;;4982880;28;20259;-20
2022/04/28 08:15:14;;;;;;;2.05;1.25;;;;;;;;;;4982491;28;21049;-20
2022/04/28 08:17:42;;;;;;;2.22;1.35;;;;;;;;;;4987172;28;20984;-17
2022/04/28 08:20:10;;;;;;;1.83;1.33;;;;;;;;;;4983117;28;20231;-20
2022/04/28 08:22:38;;;;;;;4.22;1.70;;;;;;;;;;4979362;28;20260;-17
2022/04/28 08:25:06;;;;;;;3.22;1.77;;;;;;;;;;4982692;28;20227;-18
2022/04/28 08:27:33;;;;;;;2.85;1.50;;;;;;;;;;4980283;28;20233;-20
2022/04/28 08:30:00;;;;;;;3.55;1.48;;;;;;;;;;4983200;28;20236;-19
2022/04/28 08:32:28;;;;;;;2.90;1.40;;;;;;;;;;4982486;28;20232;-18
2022/04/28 08:34:55;;;;;;;4.65;1.67;;;;;;;;;;4981227;28;20240;-18
2022/04/28 08:37:22;;;;;;;2.90;1.75;;;;;;;;;;4980163;28;20243;-20
2022/04/28 08:39:51;;;;;;;3.22;1.75;;;;;;;;;;4981842;28;20232;-20
2022/04/28 08:42:20;;;;;;;2.42;1.40;;;;;;;;;;4981045;28;20237;-19
2022/04/28 08:44:49;;;;;;;2.33;1.80;;;;;;;;;;4985661;28;20223;-19
2022/04/28 08:47:16;;;;;;;3.50;1.50;;;;;;;;;;4984575;28;20237;-19
2022/04/28 08:49:44;;;;;;;3.22;1.50;;;;;;;;;;4986003;28;20267;-19
2022/04/28 08:52:12;;;;;;;4.25;1.52;;;;;;;;;;4982709;28;20233;-19
2022/04/28 08:54:40;;;;;;;3.15;1.63;;;;;;;;;;4986083;28;20236;-19
2022/04/28 08:57:09;;;;;;;3.67;1.83;;;;;;;;;;4989935;28;20251;-19
2022/04/28 08:59:36;;;;;;;4.03;1.63;;;;;;;;;;4982688;28;20587;-19
2022/04/28 09:02:04;;;;;;;2.13;1.40;;;;;;;;;;4990828;28;20240;-19
2022/04/28 09:04:31;;;;;;;3.63;1.60;;;;;;;;;;4983307;28;20347;-19
2022/04/28 09:06:59;;;;;;;3.67;1.77;;;;;;;;;;4984529;28;20251;-19
2022/04/28 09:09:27;;;;;;;3.00;1.35;;;;;;;;;;4986081;28;20248;-19
2022/04/28 09:11:57;;;;;;;3.30;1.42;;;;;;;;;;4983724;28;20228;-19
2022/04/28 09:14:26;;;;;;;4.47;1.60;;;;;;;;;;4986610;28;20963;-19
2022/04/28 09:16:56;;;;;;;3.88;2.17;;;;;;;;;;4986213;28;20255;-19
2022/04/28 09:19:23;;;;;;;3.20;1.75;;;;;;;;;;4984219;28;20224;-19
2022/04/28 09:21:53;;;;;;;2.40;1.73;;;;;;;;;;4982693;28;20248;-19
2022/04/28 09:24:20;;;;;;;2.97;1.98;;;;;;;;;;4983824;28;20261;-19
2022/04/28 09:26:48;;;;;;;4.00;1.63;;;;;;;;;;4982103;28;20941;-19
2022/04/28 09:29:15;;;;;;;3.35;2.00;;;;;;;;;;4985088;28;20236;-19
2022/04/28 09:31:44;;;;;;;4.32;2.05;;;;;;;;;;4984829;28;20228;-19
2022/04/28 09:34:32;;;;;;;3.83;1.83;;;;;;;;;;4985300;28;21101;-19
2022/04/28 09:36:59;;;;;;;3.88;1.90;;;;;;;;;;4983125;28;20244;-19
2022/04/28 09:42:30;;;;;;;4.30;1.83;;;;;;;;;;4986144;28;21089;-19
2022/04/28 09:44:58;;;;;;;3.88;1.80;;;;;;;;;;4987999;28;20236;-19
2022/04/28 09:47:27;;;;;;;2.35;1.67;;;;;;;;;;4988333;28;20224;-19
2022/04/28 09:49:55;;;;;;;3.13;1.65;;;;;;;;;;4983677;28;20244;-19
2022/04/28 09:52:29;;;;;;;4.30;1.83;;;;;;;;;;4985179;28;20295;-19
2022/04/28 09:54:57;;;;;;;2.65;1.77;;;;;;;;;;4983247;28;20904;-19
2022/04/28 09:57:24;;;;;;;3.03;1.65;;;;;;;;;;4984356;28;20622;-19
2022/04/28 09:59:53;;;;;;;2.70;1.60;;;;;;;;;;4983919;28;20209;-19
2022/04/28 10:02:21;;;;;;;2.90;1.92;;;;;;;;;;4983489;28;20232;-19
2022/04/28 10:04:50;;;;;;;3.50;1.85;;;;;;;;;;4980930;28;20311;-19
2022/04/28 10:07:18;;;;;;;3.28;1.90;;;;;;;;;;4983728;28;20239;-19
2022/04/28 10:09:46;;;;;;;2.40;1.45;;;;;;;;;;4984213;28;20242;-19
2022/04/28 10:12:13;;;;;;;2.70;1.63;;;;;;;;;;4981466;28;20247;-19
2022/04/28 10:14:41;;;;;;;3.97;1.73;;;;;;;;;;4984609;28;20228;-19
2022/04/28 10:17:10;;;;;;;5.68;2.10;;;;;;;;;;4987415;28;20603;-19
2022/04/28 10:19:41;;;;;;;3.17;1.90;;;;;;;;;;4982084;28;20324;-18
2022/04/28 10:22:12;;;;;;;3.00;1.58;;;;;;;;;;4980799;28;20377;-19
2022/04/28 10:33:10;;;;;;;4.40;1.95;;;;;;;;;;4981344;28;20236;-19
2022/04/28 10:35:44;;;;;;;2.90;1.73;;;;;;;;;;4985171;28;20234;-19
2022/04/28 10:38:14;;;;;;;3.03;1.67;;;;;;;;;;4985058;28;20351;-19
2022/04/28 10:40:42;;;;;;;3.22;1.58;;;;;;;;;;4984317;28;20235;-19
2022/04/28 10:43:19;;;;;;;3.78;1.80;;;;;;;;;;4984456;28;20227;-19
2022/04/28 10:45:48;;;;;;;3.08;1.65;;;;;;;;;;4982611;28;20220;-19
2022/04/28 10:48:23;;;;;;;2.92;1.73;;;;;;;;;;4984387;28;20229;-18
2022/04/28 10:51:03;;;;;;;2.72;1.67;;;;;;;;;;4983386;28;20242;-18
2022/04/28 10:53:32;;;;;;;2.15;1.60;;;;;;;;;;4987934;28;20234;-20
2022/04/28 10:56:05;;;;;;;2.90;1.50;;;;;;;;;;4982192;28;20235;-20
2022/04/28 10:58:33;;;;;;;3.97;1.80;;;;;;;;;;4983586;28;20231;-19
2022/04/28 11:01:00;;;;;;;3.40;1.92;;;;;;;;;;4981010;28;20232;-19
2022/04/28 11:03:46;;;;;;;3.53;1.75;;;;;;;;;;4984193;28;20251;-19
2022/04/28 11:06:14;;;;;;;2.35;1.63;;;;;;;;;;4980119;28;20299;-19
2022/04/28 11:08:46;;;;;;;2.78;1.55;;;;;;;;;;4983364;28;20228;-20
2022/04/28 11:11:14;;;;;;;3.55;1.70;;;;;;;;;;4984400;28;20232;-20
2022/04/28 11:13:43;;;;;;;2.83;1.73;;;;;;;;;;4983741;28;20252;-19
2022/04/28 11:16:11;;;;;;;3.00;1.90;;;;;;;;;;4987181;28;20719;-18
2022/04/28 11:18:39;;;;;;;2.83;1.45;;;;;;;;;;4984018;28;20366;-20
2022/04/28 11:21:07;;;;;;;2.10;1.45;;;;;;;;;;4979961;28;20236;-20
2022/04/28 11:23:35;;;;;;;3.80;1.77;;;;;;;;;;4983356;28;20228;-19
2022/04/28 11:26:04;;;;;;;3.00;1.60;;;;;;;;;;4984558;28;21037;-20
2022/04/28 11:28:31;;;;;;;3.97;1.73;;;;;;;;;;4980836;28;20233;-19
2022/04/28 11:30:59;;;;;;;6.50;1.85;;;;;;;;;;4981326;28;20229;-20
2022/04/28 11:33:26;;;;;;;4.45;2.10;;;;;;;;;;4984999;28;20227;-20
2022/04/28 11:35:54;;;;;;;2.92;1.48;;;;;;;;;;4985142;28;20235;-20
2022/04/28 11:38:25;;;;;;;5.25;1.65;;;;;;;;;;4982293;28;20719;-19
2022/04/28 11:41:04;;;;;;;2.72;1.48;;;;;;;;;;4981299;28;20239;-19
2022/04/28 11:43:32;;;;;;;3.88;1.85;;;;;;;;;;4980797;28;20224;-20
2022/04/28 11:46:01;;;;;;;2.83;1.63;;;;;;;;;;4985252;28;20276;-20
2022/04/28 11:48:29;;;;;;;2.75;1.75;;;;;;;;;;4984814;28;20371;-20
2022/04/28 11:51:01;;;;;;;1.83;1.42;;;;;;;;;;4981835;28;20241;-19
2022/04/28 11:53:39;;;;;;;2.38;1.70;;;;;;;;;;4981151;28;20683;-19
2022/04/28 11:56:15;;;;;;;3.28;1.42;;;;;;;;;;4983107;28;20638;-19
2022/04/28 11:58:42;;;;;;;2.90;1.60;;;;;;;;;;4982685;28;20727;-19
2022/04/28 12:01:11;;;;;;;2.58;1.50;;;;;;;;;;4986354;28;20236;-19
2022/04/28 12:03:38;;;;;;;1.77;1.45;;;;;;;;;;4983156;28;20233;-19
2022/04/28 12:06:06;;;;;;;2.13;1.48;;;;;;;;;;4980177;28;20221;-19
2022/04/28 12:08:33;;;;;;;2.40;1.33;;;;;;;;;;4983053;28;20236;-19
2022/04/28 12:19:24;;;;;;;3.58;1.85;;;;;;;;;;4982868;28;21114;-19
2022/04/28 12:21:52;;;;;;;2.50;1.67;;;;;;;;;;4984873;28;20248;-19
2022/04/28 12:24:19;;;;;;;3.72;1.70;;;;;;;;;;4983396;28;20228;-19
2022/04/28 12:26:47;;;;;;;4.05;1.88;;;;;;;;;;4985747;28;20236;-19
2022/04/28 12:29:17;;;;;;;3.40;1.52;;;;;;;;;;4983007;28;20228;-19
2022/04/28 12:31:45;;;;;;;3.13;1.90;;;;;;;;;;4990111;28;20232;-19
2022/04/28 12:34:16;;;;;;;2.03;1.48;;;;;;;;;;4986399;28;20259;-19
2022/04/28 12:36:44;;;;;;;3.95;1.63;;;;;;;;;;4983144;28;20715;-19
2022/04/28 12:39:12;;;;;;;3.60;1.67;;;;;;;;;;4985924;28;20248;-19
2022/04/28 12:41:41;;;;;;;4.15;1.85;;;;;;;;;;4986862;28;20239;-19
2022/04/28 12:44:09;;;;;;;3.88;1.92;;;;;;;;;;4986980;28;20221;-19
2022/04/28 12:46:39;;;;;;;4.53;1.73;;;;;;;;;;4987036;28;20242;-19
2022/04/28 12:49:07;;;;;;;3.15;1.67;;;;;;;;;;4981849;28;20751;-19
2022/04/28 12:51:40;;;;;;;4.32;2.10;;;;;;;;;;4982618;28;20252;-19
2022/04/28 12:54:08;;;;;;;2.90;1.70;;;;;;;;;;4989193;28;20247;-19
2022/04/28 12:56:36;;;;;;;2.38;1.75;;;;;;;;;;4986469;28;20311;-19
2022/04/28 12:59:04;;;;;;;2.97;1.63;;;;;;;;;;4982719;28;20255;-19
2022/04/28 13:01:32;;;;;;;2.88;1.55;;;;;;;;;;4986178;28;21082;-19
2022/04/28 13:04:02;;;;;;;2.45;1.75;;;;;;;;;;4985924;28;20283;-20
2022/04/28 13:06:30;;;;;;;2.65;2.00;;;;;;;;;;4983424;28;20244;-19
2022/04/28 13:09:00;;;;;;;2.85;1.60;;;;;;;;;;4984145;28;20243;-19
2022/04/28 13:11:28;;;;;;;4.50;1.98;;;;;;;;;;4983816;28;20232;-20
2022/04/28 13:13:55;;;;;;;2.80;1.70;;;;;;;;;;4987654;28;20250;-19
2022/04/28 13:16:23;;;;;;;3.17;1.80;;;;;;;;;;4992187;28;20232;-20
2022/04/28 13:18:50;;;;;;;2.67;1.80;;;;;;;;;;4984465;28;20224;-20
2022/04/28 13:21:19;;;;;;;8.07;2.17;;;;;;;;;;4982588;28;21155;-18
2022/04/28 13:23:52;;;;;;;2.72;1.50;;;;;;;;;;4984210;28;20845;-19
2022/04/28 13:26:20;;;;;;;2.45;1.60;;;;;;;;;;4983419;28;20237;-18
2022/04/28 13:28:48;;;;;;;2.90;1.65;;;;;;;;;;4983654;28;20236;-18
2022/04/28 13:31:15;;;;;;;3.17;1.92;;;;;;;;;;4983344;28;20228;-18
2022/04/28 13:33:43;;;;;;;3.58;1.70;;;;;;;;;;4985082;28;20871;-20
2022/04/28 13:36:10;;;;;;;3.55;1.83;;;;;;;;;;4985489;28;20232;-20
2022/04/28 13:38:39;;;;;;;2.80;1.70;;;;;;;;;;4984759;28;20224;-20
2022/04/28 13:41:07;;;;;;;2.95;1.70;;;;;;;;;;4981379;28;20726;-20
2022/04/28 13:43:34;;;;;;;2.10;1.52;;;;;;;;;;4982613;28;20229;-20
2022/04/28 13:46:02;;;;;;;2.20;1.58;;;;;;;;;;4987105;28;20240;-20
2022/04/28 13:48:29;;;;;;;4.07;2.03;;;;;;;;;;4986486;28;20228;-19
2022/04/28 13:50:57;;;;;;;3.17;1.85;;;;;;;;;;4983859;28;20323;-20
2022/04/28 13:53:28;;;;;;;2.83;1.98;;;;;;;;;;4982943;28;20287;-20
2022/04/28 13:55:57;;;;;;;3.20;1.55;;;;;;;;;;4983799;28;20220;-20
2022/04/28 13:58:24;;;;;;;1.95;1.60;;;;;;;;;;4984082;28;20229;-19
2022/04/28 14:00:52;;;;;;;2.83;1.77;;;;;;;;;;4985229;28;20240;-19
2022/04/28 14:03:20;;;;;;;3.17;1.60;;;;;;;;;;4991815;28;20237;-20
2022/04/28 14:05:48;;;;;;;4.00;1.77;;;;;;;;;;4982215;28;20272;-20
2022/04/28 14:08:15;;;;;;;3.70;1.90;;;;;;;;;;4984376;28;20723;-20
2022/04/28 14:10:43;;;;;;;4.32;1.90;;;;;;;;;;4984975;28;20340;-20
2022/04/28 14:13:11;;;;;;;1.83;1.58;;;;;;;;;;4981299;28;21196;-20
2022/04/28 14:15:39;;;;;;;3.70;1.60;;;;;;;;;;4978732;28;20221;-20
2022/04/28 14:18:06;;;;;;;3.25;1.70;;;;;;;;;;4985468;28;20679;-19
2022/04/28 14:20:34;;;;;;;2.92;1.67;;;;;;;;;;4984638;28;20246;-20
2022/04/28 14:23:01;;;;;;;2.58;1.42;;;;;;;;;;4984783;28;20252;-19
2022/04/28 14:25:28;;;;;;;3.00;1.85;;;;;;;;;;4982115;28;20704;-19
2022/04/28 14:27:56;;;;;;;3.53;1.50;;;;;;;;;;4982399;28;21025;-20
2022/04/28 14:30:25;;;;;;;1.83;1.40;;;;;;;;;;4983897;28;20699;-20
2022/04/28 14:32:52;;;;;;;2.65;1.52;;;;;;;;;;4987327;28;20238;-19
2022/04/28 14:35:19;;;;;;;3.85;1.63;;;;;;;;;;4982002;28;20260;-19
2022/04/28 14:37:47;;;;;;;3.20;1.60;;;;;;;;;;4980323;28;20259;-20
2022/04/28 14:40:16;;;;;;;1.80;1.30;;;;;;;;;;4983791;28;20237;-20
2022/04/28 14:42:44;;;;;;;3.35;1.30;;;;;;;;;;4984297;28;20240;-19
2022/04/28 14:45:11;;;;;;;4.05;1.77;;;;;;;;;;4981775;28;20239;-19
2022/04/28 14:47:41;;;;;;;2.83;1.60;;;;;;;;;;4984444;28;20236;-18
2022/04/28 14:52:54;;;;;;;2.85;1.55;;;;;;;;;;4985525;28;20267;-19
2022/04/28 14:55:21;;;;;;;2.60;1.40;;;;;;;;;;4982909;28;20231;-19
2022/04/28 14:57:49;;;;;;;2.15;1.40;;;;;;;;;;4981558;28;20217;-19
2022/04/28 15:00:18;;;;;;;3.65;1.55;;;;;;;;;;4984290;28;20244;-19
2022/04/28 15:02:47;;;;;;;2.22;1.50;;;;;;;;;;4985097;28;20230;-19
2022/04/28 15:05:15;;;;;;;2.15;1.60;;;;;;;;;;4981386;28;20232;-19
2022/04/28 15:07:42;;;;;;;4.07;1.52;;;;;;;;;;4984530;28;20239;-20
2022/04/28 15:10:10;;;;;;;2.35;1.27;;;;;;;;;;4980496;28;20235;-19
2022/04/28 15:12:37;;;;;;;2.65;1.48;;;;;;;;;;4980695;28;20722;-20
2022/04/28 15:15:07;;;;;;;4.15;1.67;;;;;;;;;;4983675;28;20297;-19
2022/04/28 15:17:34;;;;;;;3.15;1.45;;;;;;;;;;4983477;28;20748;-18
2022/04/28 15:20:04;;;;;;;2.97;1.50;;;;;;;;;;4982988;28;20247;-20
2022/04/28 15:22:31;;;;;;;3.22;1.63;;;;;;;;;;4980940;28;20244;-19
2022/04/28 15:24:58;;;;;;;2.33;1.25;;;;;;;;;;4982424;28;20228;-20
2022/04/28 15:27:26;;;;;;;2.05;1.30;;;;;;;;;;4982779;28;20612;-19
2022/04/28 15:29:53;;;;;;;2.58;1.20;;;;;;;;;;4982535;28;21009;-20
2022/04/28 15:32:41;;;;;;;1.65;0.95;;;;;;;;;;4980556;28;20236;-19